sensor_id;sensor_type;location;lat;lon;timestamp;pressure;altitude;pressure_sealevel;temperature;humidity
66668;BME280;57205;51.438;-2.006;2022-12-26T00:00:35;99926.16;;;7.89;100.00
66668;BME280;57205;51.438;-2.006;2022-12-26T00:03:00;99928.28;;;7.92;100.00
66668;BME280;57205;51.438;-2.006;2022-12-26T00:05:25;99917.66;;;8.02;100.00
66668;BME280;57205;51.438;-2.006;2022-12-26T00:07:50;99917.66;;;8.07;100.00
66668;BME280;57205;51.438;-2.006;2022-12-26T00:10:16;99914.72;;;8.09;100.00
66668;BME280;57205;51.438;-2.006;2022-12-26T00:12:41;99915.53;;;8.09;100.00
66668;BME280;57205;51.438;-2.006;2022-12-26T00:15:06;99915.53;;;8.09;100.00
66668;BME280;57205;51.438;-2.006;2022-12-26T00:17:32;99911.28;;;8.08;100.00
66668;BME280;57205;51.438;-2.006;2022-12-26T00:19:57;99917.13;;;8.10;100.00
66668;BME280;57205;51.438;-2.006;2022-12-26T00:22:22;99914.22;;;8.12;100.00
66668;BME280;57205;51.438;-2.006;2022-12-26T00:24:47;99913.13;;;8.08;100.00
66668;BME280;57205;51.438;-2.006;2022-12-26T00:27:13;99914.44;;;8.10;100.00
66668;BME280;57205;51.438;-2.006;2022-12-26T00:29:38;99909.94;;;8.11;100.00
66668;BME280;57205;51.438;-2.006;2022-12-26T00:32:03;99907.03;;;8.17;100.00
66668;BME280;57205;51.438;-2.006;2022-12-26T00:34:28;99908.34;;;8.20;100.00
66668;BME280;57205;51.438;-2.006;2022-12-26T00:36:54;99900.34;;;8.20;100.00
66668;BME280;57205;51.438;-2.006;2022-12-26T00:39:19;99894.75;;;8.21;100.00
66668;BME280;57205;51.438;-2.006;2022-12-26T00:41:44;99901.16;;;8.20;100.00
66668;BME280;57205;51.438;-2.006;2022-12-26T00:44:09;99905.16;;;8.23;100.00
66668;BME280;57205;51.438;-2.006;2022-12-26T00:46:34;99908.88;;;8.22;100.00
66668;BME280;57205;51.438;-2.006;2022-12-26T00:49:00;99909.94;;;8.21;100.00
66668;BME280;57205;51.438;-2.006;2022-12-26T00:51:25;99914.47;;;8.20;100.00
66668;BME280;57205;51.438;-2.006;2022-12-26T00:53:51;99919.53;;;8.22;100.00
66668;BME280;57205;51.438;-2.006;2022-12-26T00:56:16;99924.59;;;8.18;100.00
66668;BME280;57205;51.438;-2.006;2022-12-26T00:58:41;99929.13;;;8.13;100.00
66668;BME280;57205;51.438;-2.006;2022-12-26T01:01:14;99940.31;;;8.10;100.00
66668;BME280;57205;51.438;-2.006;2022-12-26T01:03:40;99932.28;;;8.05;100.00
66668;BME280;57205;51.438;-2.006;2022-12-26T01:06:05;99942.94;;;8.05;100.00
66668;BME280;57205;51.438;-2.006;2022-12-26T01:08:31;99942.41;;;8.03;100.00
66668;BME280;57205;51.438;-2.006;2022-12-26T01:10:56;99946.16;;;8.07;100.00
66668;BME280;57205;51.438;-2.006;2022-12-26T01:13:21;99954.41;;;8.10;100.00
66668;BME280;57205;51.438;-2.006;2022-12-26T01:15:51;99961.09;;;8.13;100.00
66668;BME280;57205;51.438;-2.006;2022-12-26T01:18:16;99958.44;;;8.18;100.00
66668;BME280;57205;51.438;-2.006;2022-12-26T01:20:41;99961.91;;;8.23;100.00
66668;BME280;57205;51.438;-2.006;2022-12-26T01:23:07;99968.59;;;8.26;100.00
66668;BME280;57205;51.438;-2.006;2022-12-26T01:25:32;99984.31;;;8.27;100.00
66668;BME280;57205;51.438;-2.006;2022-12-26T01:27:58;99986.22;;;8.32;100.00
66668;BME280;57205;51.438;-2.006;2022-12-26T01:30:23;99995.53;;;8.29;100.00
66668;BME280;57205;51.438;-2.006;2022-12-26T01:32:48;99998.19;;;8.24;100.00
66668;BME280;57205;51.438;-2.006;2022-12-26T01:35:15;100011.22;;;8.21;100.00
66668;BME280;57205;51.438;-2.006;2022-12-26T01:37:40;100007.75;;;8.15;100.00
66668;BME280;57205;51.438;-2.006;2022-12-26T01:40:05;100019.72;;;8.08;100.00
66668;BME280;57205;51.438;-2.006;2022-12-26T01:42:35;100024.22;;;8.02;100.00
66668;BME280;57205;51.438;-2.006;2022-12-26T01:45:04;100029.00;;;7.95;100.00
66668;BME280;57205;51.438;-2.006;2022-12-26T01:47:35;100042.53;;;7.88;100.00
66668;BME280;57205;51.438;-2.006;2022-12-26T01:50:02;100055.31;;;7.81;100.00
66668;BME280;57205;51.438;-2.006;2022-12-26T01:52:34;100063.28;;;7.76;100.00
66668;BME280;57205;51.438;-2.006;2022-12-26T01:55:01;100063.50;;;7.70;100.00
66668;BME280;57205;51.438;-2.006;2022-12-26T01:57:30;100066.13;;;7.65;100.00
66668;BME280;57205;51.438;-2.006;2022-12-26T01:59:57;100068.47;;;7.56;100.00
66668;BME280;57205;51.438;-2.006;2022-12-26T02:02:22;100064.69;;;7.47;100.00
66668;BME280;57205;51.438;-2.006;2022-12-26T02:04:51;100061.72;;;7.39;100.00
66668;BME280;57205;51.438;-2.006;2022-12-26T02:07:37;100059.53;;;7.31;100.00
66668;BME280;57205;51.438;-2.006;2022-12-26T02:10:04;100071.72;;;7.22;100.00
66668;BME280;57205;51.438;-2.006;2022-12-26T02:12:31;100077.25;;;7.15;100.00
66668;BME280;57205;51.438;-2.006;2022-12-26T02:14:57;100074.28;;;7.12;100.00
66668;BME280;57205;51.438;-2.006;2022-12-26T02:17:26;100078.28;;;7.09;100.00
66668;BME280;57205;51.438;-2.006;2022-12-26T02:22:38;100111.28;;;7.13;100.00
66668;BME280;57205;51.438;-2.006;2022-12-26T02:30:10;100139.28;;;7.21;100.00
66668;BME280;57205;51.438;-2.006;2022-12-26T02:32:45;100143.53;;;7.22;100.00
66668;BME280;57205;51.438;-2.006;2022-12-26T02:35:31;100135.31;;;7.23;100.00
66668;BME280;57205;51.438;-2.006;2022-12-26T02:45:42;100175.50;;;7.27;100.00
66668;BME280;57205;51.438;-2.006;2022-12-26T02:48:41;100185.59;;;7.25;100.00
66668;BME280;57205;51.438;-2.006;2022-12-26T02:51:16;100192.53;;;7.26;100.00
66668;BME280;57205;51.438;-2.006;2022-12-26T02:56:51;100190.41;;;7.23;100.00
66668;BME280;57205;51.438;-2.006;2022-12-26T02:59:41;100197.31;;;7.24;100.00
66668;BME280;57205;51.438;-2.006;2022-12-26T03:02:37;100210.06;;;7.22;100.00
66668;BME280;57205;51.438;-2.006;2022-12-26T03:05:28;100212.44;;;7.18;100.00
66668;BME280;57205;51.438;-2.006;2022-12-26T03:08:15;100212.69;;;7.17;100.00
66668;BME280;57205;51.438;-2.006;2022-12-26T03:11:02;100211.56;;;7.13;100.00
66668;BME280;57205;51.438;-2.006;2022-12-26T03:13:45;100219.50;;;7.08;100.00
66668;BME280;57205;51.438;-2.006;2022-12-26T03:16:13;100233.28;;;7.05;100.00
66668;BME280;57205;51.438;-2.006;2022-12-26T03:18:59;100236.47;;;7.02;100.00
66668;BME280;57205;51.438;-2.006;2022-12-26T03:21:26;100252.13;;;6.98;100.00
66668;BME280;57205;51.438;-2.006;2022-12-26T03:23:53;100252.84;;;6.93;100.00
66668;BME280;57205;51.438;-2.006;2022-12-26T03:26:20;100254.41;;;6.89;100.00
66668;BME280;57205;51.438;-2.006;2022-12-26T03:29:25;100272.16;;;6.84;100.00
66668;BME280;57205;51.438;-2.006;2022-12-26T03:32:10;100273.16;;;6.78;100.00
66668;BME280;57205;51.438;-2.006;2022-12-26T03:34:41;100281.88;;;6.73;100.00
66668;BME280;57205;51.438;-2.006;2022-12-26T03:39:41;100296.66;;;6.64;100.00
66668;BME280;57205;51.438;-2.006;2022-12-26T03:42:39;100313.81;;;6.57;100.00
66668;BME280;57205;51.438;-2.006;2022-12-26T03:51:02;100332.78;;;6.44;100.00
66668;BME280;57205;51.438;-2.006;2022-12-26T03:53:50;100346.22;;;6.37;100.00
66668;BME280;57205;51.438;-2.006;2022-12-26T03:56:37;100360.25;;;6.33;100.00
66668;BME280;57205;51.438;-2.006;2022-12-26T03:59:32;100373.22;;;6.29;100.00
66668;BME280;57205;51.438;-2.006;2022-12-26T04:02:19;100392.84;;;6.28;100.00
66668;BME280;57205;51.438;-2.006;2022-12-26T04:05:03;100398.97;;;6.29;100.00
66668;BME280;57205;51.438;-2.006;2022-12-26T04:07:50;100404.03;;;6.30;100.00
66668;BME280;57205;51.438;-2.006;2022-12-26T04:10:44;100410.97;;;6.31;100.00
66668;BME280;57205;51.438;-2.006;2022-12-26T04:13:31;100415.72;;;6.29;100.00
66668;BME280;57205;51.438;-2.006;2022-12-26T04:16:22;100417.25;;;6.25;100.00
66668;BME280;57205;51.438;-2.006;2022-12-26T04:22:05;100422.22;;;6.22;100.00
66668;BME280;57205;51.438;-2.006;2022-12-26T04:25:00;100415.53;;;6.19;100.00
66668;BME280;57205;51.438;-2.006;2022-12-26T04:27:45;100427.69;;;6.15;100.00
66668;BME280;57205;51.438;-2.006;2022-12-26T04:30:30;100429.22;;;6.11;100.00
66668;BME280;57205;51.438;-2.006;2022-12-26T04:33:18;100431.06;;;6.11;100.00
66668;BME280;57205;51.438;-2.006;2022-12-26T04:36:13;100433.16;;;6.09;100.00
66668;BME280;57205;51.438;-2.006;2022-12-26T04:39:00;100442.16;;;6.08;100.00
66668;BME280;57205;51.438;-2.006;2022-12-26T04:41:45;100447.47;;;6.08;100.00
66668;BME280;57205;51.438;-2.006;2022-12-26T04:44:31;100460.41;;;6.04;100.00
66668;BME280;57205;51.438;-2.006;2022-12-26T04:46:57;100457.44;;;6.01;100.00
66668;BME280;57205;51.438;-2.006;2022-12-26T04:49:22;100473.63;;;5.99;100.00
66668;BME280;57205;51.438;-2.006;2022-12-26T04:52:09;100480.44;;;5.95;100.00
66668;BME280;57205;51.438;-2.006;2022-12-26T04:54:35;100483.91;;;5.96;100.00
66668;BME280;57205;51.438;-2.006;2022-12-26T04:57:00;100484.72;;;5.96;100.00
66668;BME280;57205;51.438;-2.006;2022-12-26T04:59:25;100492.69;;;5.96;100.00
66668;BME280;57205;51.438;-2.006;2022-12-26T05:01:51;100500.41;;;5.98;100.00
66668;BME280;57205;51.438;-2.006;2022-12-26T05:04:35;100506.53;;;5.98;100.00
66668;BME280;57205;51.438;-2.006;2022-12-26T05:10:06;100507.25;;;5.93;100.00
66668;BME280;57205;51.438;-2.006;2022-12-26T05:12:32;100513.34;;;5.94;100.00
66668;BME280;57205;51.438;-2.006;2022-12-26T05:14:58;100508.84;;;5.94;100.00
66668;BME280;57205;51.438;-2.006;2022-12-26T05:17:23;100513.59;;;5.93;100.00
66668;BME280;57205;51.438;-2.006;2022-12-26T05:20:08;100515.91;;;5.89;100.00
66668;BME280;57205;51.438;-2.006;2022-12-26T05:22:53;100538.69;;;5.85;100.00
66668;BME280;57205;51.438;-2.006;2022-12-26T05:25:39;100540.16;;;5.81;100.00
66668;BME280;57205;51.438;-2.006;2022-12-26T05:28:23;100550.31;;;5.72;100.00
66668;BME280;57205;51.438;-2.006;2022-12-26T05:31:11;100549.88;;;5.64;100.00
66668;BME280;57205;51.438;-2.006;2022-12-26T05:33:37;100557.59;;;5.54;100.00
66668;BME280;57205;51.438;-2.006;2022-12-26T05:36:21;100564.53;;;5.43;100.00
66668;BME280;57205;51.438;-2.006;2022-12-26T05:38:47;100574.38;;;5.31;100.00
66668;BME280;57205;51.438;-2.006;2022-12-26T05:41:13;100572.88;;;5.24;100.00
66668;BME280;57205;51.438;-2.006;2022-12-26T05:43:39;100585.88;;;5.14;100.00
66668;BME280;57205;51.438;-2.006;2022-12-26T05:46:04;100589.56;;;5.01;100.00
66668;BME280;57205;51.438;-2.006;2022-12-26T05:48:29;100593.56;;;4.92;100.00
66668;BME280;57205;51.438;-2.006;2022-12-26T05:50:58;100593.06;;;4.83;100.00
66668;BME280;57205;51.438;-2.006;2022-12-26T05:53:24;100599.75;;;4.74;100.00
66668;BME280;57205;51.438;-2.006;2022-12-26T05:55:49;100588.91;;;4.64;100.00
66668;BME280;57205;51.438;-2.006;2022-12-26T05:58:14;100592.22;;;4.60;100.00
66668;BME280;57205;51.438;-2.006;2022-12-26T06:00:39;100605.34;;;4.55;100.00
66668;BME280;57205;51.438;-2.006;2022-12-26T06:03:06;100607.84;;;4.50;100.00
66668;BME280;57205;51.438;-2.006;2022-12-26T06:05:31;100615.41;;;4.46;100.00
66668;BME280;57205;51.438;-2.006;2022-12-26T06:07:57;100623.00;;;4.43;100.00
66668;BME280;57205;51.438;-2.006;2022-12-26T06:10:22;100634.72;;;4.35;100.00
66668;BME280;57205;51.438;-2.006;2022-12-26T06:12:47;100630.31;;;4.29;100.00
66668;BME280;57205;51.438;-2.006;2022-12-26T06:15:12;100636.50;;;4.23;100.00
66668;BME280;57205;51.438;-2.006;2022-12-26T06:17:38;100643.06;;;4.21;100.00
66668;BME280;57205;51.438;-2.006;2022-12-26T06:20:03;100633.56;;;4.13;100.00
66668;BME280;57205;51.438;-2.006;2022-12-26T06:22:29;100633.28;;;4.03;100.00
66668;BME280;57205;51.438;-2.006;2022-12-26T06:24:54;100629.69;;;3.97;100.00
66668;BME280;57205;51.438;-2.006;2022-12-26T06:27:20;100642.38;;;3.89;100.00
66668;BME280;57205;51.438;-2.006;2022-12-26T06:29:45;100649.38;;;3.83;100.00
66668;BME280;57205;51.438;-2.006;2022-12-26T06:32:10;100657.97;;;3.79;100.00
66668;BME280;57205;51.438;-2.006;2022-12-26T06:34:36;100660.03;;;3.77;100.00
66668;BME280;57205;51.438;-2.006;2022-12-26T06:37:01;100670.88;;;3.69;100.00
66668;BME280;57205;51.438;-2.006;2022-12-26T06:39:26;100668.28;;;3.62;100.00
66668;BME280;57205;51.438;-2.006;2022-12-26T06:41:51;100668.59;;;3.54;100.00
66668;BME280;57205;51.438;-2.006;2022-12-26T06:44:17;100662.69;;;3.52;100.00
66668;BME280;57205;51.438;-2.006;2022-12-26T06:46:42;100670.84;;;3.51;100.00
66668;BME280;57205;51.438;-2.006;2022-12-26T06:49:07;100677.75;;;3.52;100.00
66668;BME280;57205;51.438;-2.006;2022-12-26T06:51:33;100683.50;;;3.49;100.00
66668;BME280;57205;51.438;-2.006;2022-12-26T06:54:00;100691.66;;;3.47;100.00
66668;BME280;57205;51.438;-2.006;2022-12-26T06:56:28;100703.91;;;3.42;100.00
66668;BME280;57205;51.438;-2.006;2022-12-26T06:58:54;100708.00;;;3.38;100.00
66668;BME280;57205;51.438;-2.006;2022-12-26T07:01:20;100712.09;;;3.34;100.00
66668;BME280;57205;51.438;-2.006;2022-12-26T07:03:45;100716.78;;;3.32;100.00
66668;BME280;57205;51.438;-2.006;2022-12-26T07:08:42;100733.47;;;3.26;100.00
66668;BME280;57205;51.438;-2.006;2022-12-26T07:11:18;100732.47;;;3.27;100.00
66668;BME280;57205;51.438;-2.006;2022-12-26T07:13:43;100731.06;;;3.24;100.00
66668;BME280;57205;51.438;-2.006;2022-12-26T07:16:09;100735.31;;;3.25;100.00
66668;BME280;57205;51.438;-2.006;2022-12-26T07:18:34;100747.97;;;3.23;100.00
66668;BME280;57205;51.438;-2.006;2022-12-26T07:21:02;100752.84;;;3.20;100.00
66668;BME280;57205;51.438;-2.006;2022-12-26T07:23:28;100756.06;;;3.22;100.00
66668;BME280;57205;51.438;-2.006;2022-12-26T07:25:54;100765.25;;;3.19;100.00
66668;BME280;57205;51.438;-2.006;2022-12-26T07:28:20;100772.81;;;3.16;100.00
66668;BME280;57205;51.438;-2.006;2022-12-26T07:30:48;100774.03;;;3.13;100.00
66668;BME280;57205;51.438;-2.006;2022-12-26T07:33:14;100778.50;;;3.13;100.00
66668;BME280;57205;51.438;-2.006;2022-12-26T07:35:39;100788.28;;;3.12;100.00
66668;BME280;57205;51.438;-2.006;2022-12-26T07:38:04;100790.72;;;3.14;100.00
66668;BME280;57205;51.438;-2.006;2022-12-26T07:40:29;100803.50;;;3.17;100.00
66668;BME280;57205;51.438;-2.006;2022-12-26T07:42:55;100806.31;;;3.22;100.00
66668;BME280;57205;51.438;-2.006;2022-12-26T07:45:22;100811.41;;;3.23;100.00
66668;BME280;57205;51.438;-2.006;2022-12-26T07:47:47;100821.94;;;3.30;100.00
66668;BME280;57205;51.438;-2.006;2022-12-26T07:50:12;100834.94;;;3.31;100.00
66668;BME280;57205;51.438;-2.006;2022-12-26T07:52:38;100838.78;;;3.35;100.00
66668;BME280;57205;51.438;-2.006;2022-12-26T07:55:03;100843.47;;;3.40;100.00
66668;BME280;57205;51.438;-2.006;2022-12-26T07:57:29;100847.50;;;3.42;100.00
66668;BME280;57205;51.438;-2.006;2022-12-26T07:59:54;100844.63;;;3.44;100.00
66668;BME280;57205;51.438;-2.006;2022-12-26T08:02:19;100854.22;;;3.45;100.00
66668;BME280;57205;51.438;-2.006;2022-12-26T08:04:44;100854.44;;;3.43;100.00
66668;BME280;57205;51.438;-2.006;2022-12-26T08:07:10;100864.19;;;3.43;100.00
66668;BME280;57205;51.438;-2.006;2022-12-26T08:09:35;100862.00;;;3.33;100.00
66668;BME280;57205;51.438;-2.006;2022-12-26T08:12:00;100870.97;;;3.26;100.00
66668;BME280;57205;51.438;-2.006;2022-12-26T08:14:25;100866.72;;;3.18;100.00
66668;BME280;57205;51.438;-2.006;2022-12-26T08:16:51;100874.06;;;3.16;100.00
66668;BME280;57205;51.438;-2.006;2022-12-26T08:19:16;100871.22;;;3.18;100.00
66668;BME280;57205;51.438;-2.006;2022-12-26T08:21:41;100883.41;;;3.19;100.00
66668;BME280;57205;51.438;-2.006;2022-12-26T08:24:07;100885.22;;;3.25;100.00
66668;BME280;57205;51.438;-2.006;2022-12-26T08:26:32;100894.38;;;3.29;100.00
66668;BME280;57205;51.438;-2.006;2022-12-26T08:28:57;100895.97;;;3.36;100.00
66668;BME280;57205;51.438;-2.006;2022-12-26T08:31:23;100908.53;;;3.41;100.00
66668;BME280;57205;51.438;-2.006;2022-12-26T08:33:48;100913.22;;;3.45;100.00
66668;BME280;57205;51.438;-2.006;2022-12-26T08:36:14;100922.34;;;3.49;100.00
66668;BME280;57205;51.438;-2.006;2022-12-26T08:38:43;100922.31;;;3.56;100.00
66668;BME280;57205;51.438;-2.006;2022-12-26T08:41:08;100927.78;;;3.61;100.00
66668;BME280;57205;51.438;-2.006;2022-12-26T08:43:34;100932.00;;;3.68;100.00
66668;BME280;57205;51.438;-2.006;2022-12-26T08:46:06;100936.91;;;3.71;100.00
66668;BME280;57205;51.438;-2.006;2022-12-26T08:48:32;100942.97;;;3.78;100.00
66668;BME280;57205;51.438;-2.006;2022-12-26T08:51:18;100943.97;;;3.84;100.00
66668;BME280;57205;51.438;-2.006;2022-12-26T08:53:44;100945.94;;;3.88;100.00
66668;BME280;57205;51.438;-2.006;2022-12-26T08:56:11;100936.19;;;3.89;100.00
66668;BME280;57205;51.438;-2.006;2022-12-26T08:58:37;100946.16;;;3.93;100.00
66668;BME280;57205;51.438;-2.006;2022-12-26T09:01:07;100949.78;;;3.99;100.00
66668;BME280;57205;51.438;-2.006;2022-12-26T09:03:33;100953.63;;;4.03;100.00
66668;BME280;57205;51.438;-2.006;2022-12-26T09:05:58;100958.88;;;4.10;100.00
66668;BME280;57205;51.438;-2.006;2022-12-26T09:08:24;100962.06;;;4.18;100.00
66668;BME280;57205;51.438;-2.006;2022-12-26T09:10:49;100966.16;;;4.45;100.00
66668;BME280;57205;51.438;-2.006;2022-12-26T09:13:15;100965.75;;;4.91;100.00
66668;BME280;57205;51.438;-2.006;2022-12-26T09:15:40;100973.03;;;5.38;100.00
66668;BME280;57205;51.438;-2.006;2022-12-26T09:18:05;100982.50;;;5.82;100.00
66668;BME280;57205;51.438;-2.006;2022-12-26T09:20:31;100992.75;;;6.26;100.00
66668;BME280;57205;51.438;-2.006;2022-12-26T09:22:57;100998.28;;;6.66;100.00
66668;BME280;57205;51.438;-2.006;2022-12-26T09:25:24;100995.44;;;7.02;100.00
66668;BME280;57205;51.438;-2.006;2022-12-26T09:27:49;100990.66;;;7.39;100.00
66668;BME280;57205;51.438;-2.006;2022-12-26T09:30:17;101007.69;;;7.77;100.00
66668;BME280;57205;51.438;-2.006;2022-12-26T09:32:43;101006.66;;;8.07;100.00
66668;BME280;57205;51.438;-2.006;2022-12-26T09:35:08;101012.34;;;8.38;100.00
66668;BME280;57205;51.438;-2.006;2022-12-26T09:37:33;101008.81;;;8.66;96.63
66668;BME280;57205;51.438;-2.006;2022-12-26T09:39:58;101011.59;;;8.88;93.81
66668;BME280;57205;51.438;-2.006;2022-12-26T09:45:10;101021.09;;;9.17;89.82
66668;BME280;57205;51.438;-2.006;2022-12-26T09:50:25;101027.91;;;9.46;87.98
66668;BME280;57205;51.438;-2.006;2022-12-26T09:52:56;101031.25;;;9.53;85.88
66668;BME280;57205;51.438;-2.006;2022-12-26T09:55:39;101037.47;;;9.58;85.23
66668;BME280;57205;51.438;-2.006;2022-12-26T09:58:29;101038.03;;;9.60;85.42
66668;BME280;57205;51.438;-2.006;2022-12-26T10:01:13;101037.69;;;9.57;84.25
66668;BME280;57205;51.438;-2.006;2022-12-26T10:03:38;101049.22;;;9.41;82.73
66668;BME280;57205;51.438;-2.006;2022-12-26T10:06:16;101042.63;;;9.27;82.83
66668;BME280;57205;51.438;-2.006;2022-12-26T10:08:45;101052.31;;;9.16;84.76
66668;BME280;57205;51.438;-2.006;2022-12-26T10:11:47;101050.97;;;8.97;86.00
66668;BME280;57205;51.438;-2.006;2022-12-26T10:16:42;101056.09;;;8.54;88.89
66668;BME280;57205;51.438;-2.006;2022-12-26T10:19:14;101060.25;;;8.33;89.58
66668;BME280;57205;51.438;-2.006;2022-12-26T10:21:55;101060.66;;;8.14;89.37
66668;BME280;57205;51.438;-2.006;2022-12-26T10:24:26;101059.78;;;7.97;90.80
66668;BME280;57205;51.438;-2.006;2022-12-26T10:26:55;101061.19;;;7.87;91.46
66668;BME280;57205;51.438;-2.006;2022-12-26T10:29:28;101070.34;;;7.80;91.80
66668;BME280;57205;51.438;-2.006;2022-12-26T10:34:45;101080.09;;;7.63;93.94
66668;BME280;57205;51.438;-2.006;2022-12-26T10:37:25;101070.03;;;7.53;95.71
66668;BME280;57205;51.438;-2.006;2022-12-26T10:39:54;101076.88;;;7.49;96.25
66668;BME280;57205;51.438;-2.006;2022-12-26T10:42:35;101069.13;;;7.48;96.64
66668;BME280;57205;51.438;-2.006;2022-12-26T10:45:01;101075.13;;;7.43;98.59
66668;BME280;57205;51.438;-2.006;2022-12-26T10:47:32;101075.94;;;7.44;100.00
66668;BME280;57205;51.438;-2.006;2022-12-26T10:50:01;101089.72;;;7.41;99.82
66668;BME280;57205;51.438;-2.006;2022-12-26T10:52:34;101092.84;;;7.26;99.05
66668;BME280;57205;51.438;-2.006;2022-12-26T10:55:01;101096.88;;;7.17;99.81
66668;BME280;57205;51.438;-2.006;2022-12-26T10:57:27;101097.22;;;7.09;100.00
66668;BME280;57205;51.438;-2.006;2022-12-26T10:59:57;101106.00;;;6.98;100.00
66668;BME280;57205;51.438;-2.006;2022-12-26T11:02:23;101102.03;;;6.89;100.00
66668;BME280;57205;51.438;-2.006;2022-12-26T11:05:06;101102.25;;;6.87;100.00
66668;BME280;57205;51.438;-2.006;2022-12-26T11:07:33;101100.53;;;6.81;100.00
66668;BME280;57205;51.438;-2.006;2022-12-26T11:09:59;101098.31;;;6.78;100.00
66668;BME280;57205;51.438;-2.006;2022-12-26T11:12:27;101106.75;;;6.75;100.00
66668;BME280;57205;51.438;-2.006;2022-12-26T11:14:58;101100.03;;;6.73;100.00
66668;BME280;57205;51.438;-2.006;2022-12-26T11:17:32;101103.50;;;6.73;100.00
66668;BME280;57205;51.438;-2.006;2022-12-26T11:20:08;101115.19;;;6.72;100.00
66668;BME280;57205;51.438;-2.006;2022-12-26T11:22:34;101117.09;;;6.65;100.00
66668;BME280;57205;51.438;-2.006;2022-12-26T11:27:30;101122.72;;;6.46;100.00
66668;BME280;57205;51.438;-2.006;2022-12-26T11:32:44;101120.00;;;6.34;100.00
66668;BME280;57205;51.438;-2.006;2022-12-26T11:35:18;101123.53;;;6.28;100.00
66668;BME280;57205;51.438;-2.006;2022-12-26T11:37:44;101120.16;;;6.21;100.00
66668;BME280;57205;51.438;-2.006;2022-12-26T11:40:18;101131.06;;;6.13;100.00
66668;BME280;57205;51.438;-2.006;2022-12-26T11:42:48;101139.72;;;6.09;100.00
66668;BME280;57205;51.438;-2.006;2022-12-26T11:45:14;101133.59;;;6.08;100.00
66668;BME280;57205;51.438;-2.006;2022-12-26T11:47:44;101134.41;;;6.09;100.00
66668;BME280;57205;51.438;-2.006;2022-12-26T11:50:11;101143.78;;;6.11;100.00
66668;BME280;57205;51.438;-2.006;2022-12-26T11:55:39;101129.41;;;6.19;100.00
66668;BME280;57205;51.438;-2.006;2022-12-26T12:00:30;101139.09;;;6.25;100.00
66668;BME280;57205;51.438;-2.006;2022-12-26T12:02:56;101144.78;;;6.28;100.00
66668;BME280;57205;51.438;-2.006;2022-12-26T12:10:40;101140.34;;;6.40;100.00
66668;BME280;57205;51.438;-2.006;2022-12-26T12:23:42;101124.66;;;6.21;100.00
66668;BME280;57205;51.438;-2.006;2022-12-26T12:26:02;101134.13;;;6.17;100.00
66668;BME280;57205;51.438;-2.006;2022-12-26T12:31:08;101132.25;;;6.17;100.00
66668;BME280;57205;51.438;-2.006;2022-12-26T12:38:45;101134.72;;;6.19;100.00
66668;BME280;57205;51.438;-2.006;2022-12-26T12:48:51;101136.56;;;6.18;100.00
66668;BME280;57205;51.438;-2.006;2022-12-26T12:51:25;101149.84;;;6.18;100.00
66668;BME280;57205;51.438;-2.006;2022-12-26T13:01:46;101144.78;;;6.28;100.00
66668;BME280;57205;51.438;-2.006;2022-12-26T13:09:14;101149.09;;;6.29;100.00
66668;BME280;57205;51.438;-2.006;2022-12-26T13:11:43;101148.03;;;6.30;100.00
66668;BME280;57205;51.438;-2.006;2022-12-26T13:16:39;101140.78;;;6.37;100.00
66668;BME280;57205;51.438;-2.006;2022-12-26T13:21:52;101130.47;;;6.29;100.00
66668;BME280;57205;51.438;-2.006;2022-12-26T13:24:30;101128.84;;;6.28;100.00
66668;BME280;57205;51.438;-2.006;2022-12-26T13:26:59;101132.56;;;6.27;100.00
66668;BME280;57205;51.438;-2.006;2022-12-26T13:31:55;101140.38;;;6.22;100.00
66668;BME280;57205;51.438;-2.006;2022-12-26T13:34:21;101136.56;;;6.18;100.00
66668;BME280;57205;51.438;-2.006;2022-12-26T13:36:50;101140.69;;;6.14;100.00
66668;BME280;57205;51.438;-2.006;2022-12-26T13:41:45;101142.25;;;6.04;100.00
66668;BME280;57205;51.438;-2.006;2022-12-26T13:44:31;101150.84;;;5.99;100.00
66668;BME280;57205;51.438;-2.006;2022-12-26T13:46:57;101144.72;;;5.99;100.00
66668;BME280;57205;51.438;-2.006;2022-12-26T13:51:51;101145.19;;;5.96;100.00
66668;BME280;57205;51.438;-2.006;2022-12-26T13:54:18;101156.41;;;5.98;100.00
66668;BME280;57205;51.438;-2.006;2022-12-26T13:59:12;101156.31;;;6.04;100.00
66668;BME280;57205;51.438;-2.006;2022-12-26T14:01:56;101161.78;;;6.09;100.00
66668;BME280;57205;51.438;-2.006;2022-12-26T14:23:00;101166.34;;;6.02;100.00
66668;BME280;57205;51.438;-2.006;2022-12-26T14:25:51;101166.56;;;6.01;100.00
66668;BME280;57205;51.438;-2.006;2022-12-26T14:33:23;101167.16;;;5.84;100.00
66668;BME280;57205;51.438;-2.006;2022-12-26T14:38:36;101175.59;;;5.75;100.00
66668;BME280;57205;51.438;-2.006;2022-12-26T14:41:06;101177.72;;;5.66;100.00
66668;BME280;57205;51.438;-2.006;2022-12-26T14:43:36;101184.50;;;5.62;100.00
66668;BME280;57205;51.438;-2.006;2022-12-26T14:46:03;101191.84;;;5.60;100.00
66668;BME280;57205;51.438;-2.006;2022-12-26T14:50:55;101198.63;;;5.56;100.00
66668;BME280;57205;51.438;-2.006;2022-12-26T14:53:41;101204.38;;;5.53;100.00
66668;BME280;57205;51.438;-2.006;2022-12-26T15:13:57;101230.28;;;5.27;100.00
66668;BME280;57205;51.438;-2.006;2022-12-26T15:16:46;101238.25;;;5.27;100.00
66668;BME280;57205;51.438;-2.006;2022-12-26T15:22:20;101254.38;;;5.25;100.00
66668;BME280;57205;51.438;-2.006;2022-12-26T15:29:34;101256.59;;;5.28;100.00
66668;BME280;57205;51.438;-2.006;2022-12-26T15:32:06;101254.69;;;5.35;100.00
66668;BME280;57205;51.438;-2.006;2022-12-26T15:34:40;101255.53;;;5.36;100.00
66668;BME280;57205;51.438;-2.006;2022-12-26T15:47:17;101240.59;;;5.10;100.00
66668;BME280;57205;51.438;-2.006;2022-12-26T15:59:57;101245.03;;;4.72;100.00
66668;BME280;57205;51.438;-2.006;2022-12-26T16:04:53;101257.13;;;4.61;100.00
66668;BME280;57205;51.438;-2.006;2022-12-26T16:07:27;101270.63;;;4.53;100.00
66668;BME280;57205;51.438;-2.006;2022-12-26T16:09:56;101269.41;;;4.49;100.00
66668;BME280;57205;51.438;-2.006;2022-12-26T16:12:32;101269.81;;;4.46;100.00